logo
App data

Mystery P.I. - The New York Fortune

A fun loving & eccentric New York billionaire has hidden the will to his vast fortune somewhere in New York City! His family only has 17 hours to locate the will or their Grandpa's entire estate will be given to his cat & dog. You are the world famous Mystery P.I. and the family has hired you to track down the clues hidden all over NYC.
Store | Hub | SteamDB
Developer: SpinTop Games Publisher: PopCap Games, Inc.
Genre: Casual
Languages: English
Tags: Casual (23), Hidden Object (8)
Category: Single-player
Release date: Jan 14, 2009
Price: $1.24 75%
Owners: 20,000 .. 50,000
Followers: 58
Peak concurrent players yesterday: 4
Playtime total: 13:39 (average) 26:44 (median)

Steam Spy is still in beta, so expect major bugs.

Owners data:

Access restricted.

This feature is only available to users with special access rights. Sorry.

If you want to proceed, you need to register or log in first and then back Steam Spy on Patreon. Look for Indie or Pro pledge.

Don't forget to use the same email as on Steam Spy!

Audience in 2 weeks:

Access restricted.

This feature is only available to users with special access rights. Sorry.

If you want to proceed, you need to register or log in first and then back Steam Spy on Patreon. Look for Indie or Pro pledge.

Don't forget to use the same email as on Steam Spy!

Peak daily concurrent players:

CCU data courtesy of SteamDB. Used with permission.

Hourly concurrent players:

Daily Twitch stats:

Hourly Twitch stats:

YouTube:

The views data is based on top 50 videos uploaded last week. Actual number of views might be more than the number shown.

The displayed number of videos uploaded yesterday is limited to 50, so if there were more videos uploaded, the number will still show 50.

If the game has commonly used word as its name (like "FEAR" or "Volume") its number of Youtube views might be wrong.

Games similar to this one:

# Game Release date
Price
Score rank
(Userscore / Metascore)
Owners
Players
Playtime (Median)
1 Puppy Dog: Jigsaw Puzzles Jul 19, 2016 $0.49100% (100%)50,000 .. 100,0001.27%01:01 (00:40)
2 Gnomes Garden 2 May 18, 2016 $0.49N/A (N/A)20,000 .. 50,0000%00:00 (00:00)
3 Peggle Nights Oct 15, 2008 $1.2490% (94%/76%)200,000 .. 500,0000.83%00:25 (00:08)
4 Legends of Atlantis: Exodus Apr 9, 2012 $1.04N/A (N/A)0 .. 20,0000%00:00 (00:00)
5 Tradewinds Classics Jul 17, 2009 $4.99N/A (N/A)0 .. 20,0000%00:00 (00:00)
6 Hidden Object Bundle 4 in 1 Jun 1, 2014 $2.7987% (93%)20,000 .. 50,0004.08%01:29 (00:59)
7 Chuzzle Deluxe Aug 30, 2006 $1.2487% (93%)50,000 .. 100,0000%00:00 (00:00)
8 Alice's Patchwork Mar 3, 2016 $0.49N/A (N/A)20,000 .. 50,0002.23%03:47 (01:50)
9 YOU DON’T KNOW JACK Feb 8, 2011 N/A83% (92%/71%)0 .. 20,0000%00:00 (00:00)
10 Farm Frenzy 2 Feb 15, 2010 $4.99N/A (N/A)0 .. 20,0000%00:00 (00:00)
11 Princess Maker 2 Refine Sep 28, 2016 $9.9983% (92%)20,000 .. 50,00010%00:01 (00:00)
12 Bejeweled 2 Deluxe Aug 30, 2006 $1.2479% (91%)50,000 .. 100,0004.35%00:05 (00:01)
13 Zuma Deluxe Aug 30, 2006 $1.2479% (91%)50,000 .. 100,0002.5%00:07 (00:02)
14 Gemini Lost May 6, 2010 $6.99N/A (N/A)0 .. 20,0000%00:00 (00:00)
15 Kitty Cat: Jigsaw Puzzles Jul 18, 2016 $0.49N/A (N/A)20,000 .. 50,0000%00:00 (00:00)
16 Stikbold! A Dodgeball Adventure Apr 1, 2016 $4.9973% (89%)50,000 .. 100,0000%00:00 (00:00)
17 Putt-Putt and Fatty Bear's Activity Pack Mar 25, 1994 $1.99N/A (N/A)0 .. 20,0000%00:00 (00:00)
18 Baseball Mogul 2015 Apr 3, 2014 $0.99N/A (N/A)20,000 .. 50,0000%00:00 (00:00)
19 Shufflepuck Cantina Deluxe Dec 6, 2013 $9.9970% (88%)100,000 .. 200,0000%00:00 (00:00)
20 Mr Nibbles Forever Apr 29, 2016 $0.99N/A (N/A)0 .. 20,0000%00:00 (00:00)
21 Luxor 3 Jun 10, 2008 $4.9970% (88%)20,000 .. 50,0000%00:00 (00:00)
22 Hidden Object 6-in-1 bundle Mar 16, 2016 $4.1970% (88%)20,000 .. 50,0002.13%07:41 (02:33)
23 Puzzler World May 28, 2010 $0.7467% (87%)50,000 .. 100,0000%00:00 (00:00)
24 Space Codex May 9, 2016 $0.4967% (87%)50,000 .. 100,0001.1%02:43 (02:42)
25 Big Thinkers 1st Grade Aug 18, 2015 $1.95N/A (N/A)0 .. 20,0005.56%00:53 (00:17)
26 Pretty Girls Panic! Dec 20, 2016 $0.9964% (86%)20,000 .. 50,0003.9%03:09 (02:26)
27 Plant Tycoon May 12, 2008 $9.99N/A (N/A)0 .. 20,0000%00:00 (00:00)
28 Among the Heavens Nov 6, 2015 $1.4964% (86%)50,000 .. 100,0000%00:00 (00:00)
29 Gnomes Garden Dec 18, 2015 $0.49N/A (N/A)20,000 .. 50,0000%00:00 (00:00)
30 Little Racers STREET Feb 6, 2014 $1.1959% (84%/62%)100,000 .. 200,0000.77%03:38 (01:56)
31 Brink of Consciousness: The Lonely Hearts Murders Nov 24, 2014 $4.9959% (84%)0 .. 20,0000%00:00 (00:00)
32 BasketBelle Dec 9, 2014 $1.2457% (83%)0 .. 20,0000%00:00 (00:00)
33 Urban Trial Freestyle Sep 18, 2013 $1.3957% (83%/58%)100,000 .. 200,0000%00:00 (00:00)
34 Combat Wings: Battle of Britain Oct 14, 2009 $0.7454% (82%)100,000 .. 200,0000.85%00:24 (00:08)
35 Virtual Villagers - The Secret City May 28, 2008 $9.99N/A (N/A)0 .. 20,0000%00:00 (00:00)
36 My Riding Stables: Life with Horses Mar 27, 2014 $2.9954% (82%)0 .. 20,0000%00:00 (00:00)
37 Crash Dive Jul 6, 2015 $6.9952% (81%)0 .. 20,0000%00:00 (00:00)
38 Venice Deluxe Jun 26, 2007 $1.24N/A (N/A)20,000 .. 50,0000%00:00 (00:00)
39 7 Wonders: Treasures of Seven Nov 14, 2008 $4.9950% (80%)20,000 .. 50,0000%00:00 (00:00)
40 Rotastic Oct 11, 2012 $1.49N/A (N/A)0 .. 20,0000%00:00 (00:00)
41 Mystery P.I. - Lost in Los Angeles Jul 27, 2009 $1.24N/A (N/A)20,000 .. 50,0000%00:00 (00:00)
42 Mystery Case Files: Madame Fate Dec 14, 2007 $3.49N/A (N/A)0 .. 20,0000%00:00 (00:00)
43 Mahjong Destiny Jun 17, 2016 $0.59N/A (N/A)50,000 .. 100,0000%00:00 (00:00)
44 Radial-G : Racing Revolved Mar 28, 2016 $9.9950% (80%)0 .. 20,0000%00:00 (00:00)
45 Crash Time 3 Nov 25, 2009 $1.4950% (80%)20,000 .. 50,0000%00:00 (00:00)
46 Typer Shark! Deluxe Aug 30, 2006 $1.2447% (79%)20,000 .. 50,0000%00:00 (00:00)
47 Qvadriga Jun 13, 2014 $4.7945% (78%/72%)20,000 .. 50,0000%00:00 (00:00)
48 The Wizard's Pen Sep 16, 2008 $1.24N/A (N/A)20,000 .. 50,0000%00:00 (00:00)
49 Sea Legends: Phantasmal Light Collector's Edition Jan 15, 2012 $1.2442% (76%)20,000 .. 50,0000%00:00 (00:00)
50 Virtual Villagers: The Lost Children May 12, 2008 $9.99N/A (N/A)0 .. 20,0000%00:00 (00:00)
51 Elementary My Dear Majesty! Nov 15, 2013 $0.4940% (75%)20,000 .. 50,0000.95%01:43 (00:34)
52 Pretty Girls Mahjong Solitaire Aug 24, 2015 $0.9940% (75%)20,000 .. 50,0002.13%03:16 (02:10)
53 Toilet Tycoon Mar 1, 2000 $1.2438% (74%)0 .. 20,0000%00:00 (00:00)
54 Zombie Solitaire Nov 15, 2013 $2.69N/A (N/A)0 .. 20,0000%00:00 (00:00)
55 Vehicle Simulator Mar 27, 2009 $20N/A (N/A)0 .. 20,0000%00:00 (00:00)
56 Amazing Adventures Around the World Sep 17, 2008 $1.24N/A (N/A)20,000 .. 50,0000%00:00 (00:00)
57 Home Design 3D Jan 30, 2015 $2.9936% (73%)20,000 .. 50,0000%00:00 (00:00)
58 Ski Region Simulator - Gold Edition Jan 16, 2013 $4.9936% (73%)20,000 .. 50,0000%00:00 (00:00)
59 Cooking Dash Aug 12, 2009 $9.99N/A (N/A)0 .. 20,0000%00:00 (00:00)
60 Monster Mash Jul 17, 2009 $4.99N/A (N/A)0 .. 20,0000%00:00 (00:00)
61 Hotel Dash Suite Success May 6, 2010 $6.99N/A (N/A)0 .. 20,0000%00:00 (00:00)
62 Evolution Planet: Gold Edition Jul 7, 2016 $4.99N/A (N/A)0 .. 20,0000%00:00 (00:00)
63 aerofly RC 7 Nov 6, 2014 $35.9933% (71%)0 .. 20,0000%00:00 (00:00)
64 Football Mogul 2014 Sep 4, 2013 $0.99N/A (N/A)20,000 .. 50,0000%00:00 (00:00)
65 Runaway Express Mystery Sep 23, 2014 $2.44N/A (N/A)0 .. 20,0000%00:00 (00:00)
66 StuntMANIA Reloaded Nov 13, 2014 $1.6931% (70%)20,000 .. 50,0001.89%05:31 (01:50)
67 Mystery P.I. - The Lottery Ticket Oct 16, 2007 $1.24N/A (N/A)20,000 .. 50,0000%00:00 (00:00)
68 Diner Mania Jun 25, 2015 $0.5130% (69%)0 .. 20,0000%00:00 (00:00)
69 MiniDrivers Aug 20, 2015 $5.9930% (69%)20,000 .. 50,0000%00:00 (00:00)
70 Polaris Sector Mar 22, 2016 $9.9930% (69%/76%)0 .. 20,0000%00:00 (00:00)
71 Chocolatier: Decadence by Design Aug 12, 2009 $9.9927% (67%)0 .. 20,0000%00:00 (00:00)
72 Luxor Jun 10, 2008 $4.99N/A (N/A)0 .. 20,0000%00:00 (00:00)
73 Mystery P.I. - The Vegas Heist Jun 4, 2008 $1.24N/A (N/A)20,000 .. 50,0000%00:00 (00:00)
74 Zooloretto Nov 1, 2011 $1.04N/A (N/A)0 .. 20,0000%00:00 (00:00)
75 Pro Cycling Manager 2014 Jun 19, 2014 $2.9923% (64%)20,000 .. 50,0000%00:00 (00:00)
76 Meridian: Age of Invention Jan 28, 2013 $1.04N/A (N/A)20,000 .. 50,0000%00:00 (00:00)
77 City Life 2008 Jul 18, 2008 $1.9922% (63%)20,000 .. 50,0000%00:00 (00:00)
78 Castle: Never Judge a Book by its Cover Jul 9, 2013 $4.9922% (63%)20,000 .. 50,0000%00:00 (00:00)
79 PAC-MAN CHAMPIONSHIP EDITION 2 Sep 13, 2016 $3.2422% (63%)20,000 .. 50,0001.25%00:07 (00:02)
80 Bridge It + Nov 18, 2013 $4.19N/A (N/A)20,000 .. 50,0000%00:00 (00:00)
81 Aerofly FS 1 Flight Simulator Oct 17, 2012 $14.9921% (62%)0 .. 20,0000%00:00 (00:00)
82 Jane Angel: Templar Mystery Dec 10, 2009 $1.24N/A (N/A)20,000 .. 50,0000%00:00 (00:00)
83 Air Conflicts: Secret Wars Sep 30, 2011 $0.8920% (61%/65%)50,000 .. 100,0000%00:00 (00:00)
84 Cities in Motion 2 Apr 2, 2013 $4.9917% (59%/72%)500,000 .. 1,000,0000.56%01:19 (01:19)
85 Hacker Evolution: Untold Sep 14, 2010 $0.9917% (59%)200,000 .. 500,0000.2%00:01 (00:00)
86 DinerTown Tycoon Sep 30, 2009 $9.99N/A (N/A)0 .. 20,0000%00:00 (00:00)
87 Riding Star - Horse Championship! Mar 27, 2014 $2.99N/A (N/A)0 .. 20,0000%00:00 (00:00)
88 Luxor: Quest for the Afterlife Dec 15, 2008 $4.99N/A (N/A)20,000 .. 50,0000%00:00 (00:00)
89 Kumoon : Ballistic Physics Puzzle Nov 10, 2015 $2.9914% (55%)0 .. 20,0000%00:00 (00:00)
90 Pacific Storm Allies Aug 18, 2008 $0.7912% (53%/60%)50,000 .. 100,0000%00:00 (00:00)
91 Speed Kills May 16, 2014 $0.9911% (51%)200,000 .. 500,0000.73%01:32 (01:36)
92 Poker Pretty Girls Battle: Texas Hold'em Oct 21, 2015 $1.4911% (51%)20,000 .. 50,0002.53%01:44 (00:59)
93 300 Dwarves Jun 17, 2013 $3.4910% (49%)0 .. 20,0000%00:00 (00:00)
94 Firefighters 2014 May 21, 2014 $7.9910% (49%)50,000 .. 100,0000%00:00 (00:00)
95 Shannon Tweed's Attack Of The Groupies Apr 1, 2014 $0.99N/A (N/A)0 .. 20,0000%00:00 (00:00)
96 Transport Giant Jun 8, 2004 $9.998% (45%)100,000 .. 200,0000%00:00 (00:00)
97 Ludo Supremo Jun 8, 2016 $0.59N/A (N/A)20,000 .. 50,0000.63%00:30 (00:10)
98 Lords of Football Apr 5, 2013 $3.748% (45%/52%)20,000 .. 50,0000%00:00 (00:00)
99 Theme Park Studio Dec 2, 2016 $29.997% (44%)20,000 .. 50,0000%00:00 (00:00)
100 Ship Simulator: Maritime Search and Rescue Jul 1, 2014 $7.197% (42%)20,000 .. 50,0000%00:00 (00:00)
101 Luxor 2 Jun 10, 2008 $4.99N/A (N/A)20,000 .. 50,0000%00:00 (00:00)
102 Silent Hunter 5: Battle of the Atlantic Mar 2010 $3.396% (41%/62%)50,000 .. 100,0006.9%04:05 (02:42)
103 Echelon Apr 15, 2001 $0.515% (39%/70%)0 .. 20,0000%00:00 (00:00)
104 RECYCLE Sep 3, 2014 $1.995% (38%)20,000 .. 50,0000%00:00 (00:00)
105 Firefighters - The Simulation Sep 18, 2012 $5.09N/A (N/A)0 .. 20,0000%00:00 (00:00)
106 Diner Dash: Hometown Hero Aug 12, 2009 $9.994% (34%)0 .. 20,0000%00:00 (00:00)
107 Industry Empire Jul 30, 2014 $5.993% (31%)20,000 .. 50,0000%00:00 (00:00)
108 Tetris Ultimate Dec 10, 2015 $5.093% (31%)0 .. 20,0000%00:00 (00:00)
109 City Play May 19, 2016 $1.19N/A (N/A)0 .. 20,0000%00:00 (00:00)
110 The Terminal 2 Aug 8, 2014 $1.492% (24%)0 .. 20,0000%00:00 (00:00)
111 G-Ball May 28, 2014 $0.991% (19%)0 .. 20,0003.13%00:01 (00:00)
112 Airline Tycoon 2 Oct 24, 2011 $2.491% (17%/57%)100,000 .. 200,0000%00:00 (00:00)
113 The Flying Dutchman Sep 12, 2014 $0.741% (3%)0 .. 20,0000%00:00 (00:00)
114 TriJinx: A Kristine Kross Mystery May 6, 2010 $6.99N/A (N/A)0 .. 20,0000%00:00 (00:00)
115 Bubble Blowout Oct 24, 2016 $0.49N/A (N/A)20,000 .. 50,0000%00:00 (00:00)
116 Barnyard Mahjong 3 Jul 29, 2016 $0.99N/A (N/A)50,000 .. 100,0000%00:00 (00:00)
117 Discovery! A Seek and Find Adventure Jul 29, 2008 $4.99N/A (N/A)0 .. 20,0000%00:00 (00:00)
118 Rush for gold: California Mar 9, 2016 $1.99N/A (N/A)50,000 .. 100,0000%00:00 (00:00)
119 The Hidden Dragon Jul 26, 2016 $0.99N/A (N/A)0 .. 20,0000.62%00:01 (00:00)
120 Them - The Summoning May 16, 2014 $1.99N/A (N/A)0 .. 20,0000%00:00 (00:00)
121 Tropical Fish Shop 2 Feb 10, 2012 $1.99N/A (N/A)0 .. 20,0000%00:00 (00:00)
122 Solitaire Christmas. Match 2 Cards Dec 24, 2015 $0.49N/A (N/A)20,000 .. 50,0000%00:00 (00:00)
123 Farm Frenzy 3 Feb 15, 2010 $9.99N/A (N/A)0 .. 20,0000%00:00 (00:00)
124 Heartomics: Nokori Mar 25, 2016 $0.99N/A (N/A)0 .. 20,0000%00:00 (00:00)
125 Brain Spa Oct 10, 2008 $3.39N/A (N/A)0 .. 20,0000%00:00 (00:00)
126 Fantastic 4 In A Row 2 Aug 15, 2016 $0.49N/A (N/A)50,000 .. 100,0000%00:00 (00:00)
127 Bayla Bunny Jun 13, 2016 $0.59N/A (N/A)50,000 .. 100,0000.65%00:30 (00:10)
128 Chainz 2: Relinked Jul 13, 2009 $4.99N/A (N/A)0 .. 20,0000%00:00 (00:00)
129 Dessert Storm Oct 23, 2016 $0.49N/A (N/A)20,000 .. 50,0000%00:00 (00:00)

Owners of this game also own:

Access restricted.

This feature is only available to users with special access rights. Sorry.

If you want to proceed, you need to register or log in first and then back Steam Spy on Patreon. Look for Indie or Pro pledge.

Don't forget to use the same email as on Steam Spy!

Playtime distribution:

Access restricted.

This feature is only available to users with special access rights. Sorry.

If you want to proceed, you need to register or log in first and then back Steam Spy on Patreon. Look for Indie or Pro pledge.

Don't forget to use the same email as on Steam Spy!

Playtime (2 weeks):

Access restricted.

This feature is only available to users with special access rights. Sorry.

If you want to proceed, you need to register or log in first and then back Steam Spy on Patreon. Look for Indie or Pro pledge.

Don't forget to use the same email as on Steam Spy!

User reviews:

Login required.

Please register or log in to see this information.